»·PEaware :: USC243 KPRC-KPSP

USC243 :: KPRC-KPSP

FLIGHT INFORMATION

Flight Status: Arrived
Operator: Unknown
More flights by this operator :: More flights under this callsign
Pilot: Andy P. (22680)
Aircraft: GATES LEARJET LEARJET 35/36
(LJ35)
More flights by this aircraft type
Origin: KPRC Love
United States
Destination: KPSP Palm Springs Intl
United States
More flights between these airports :: More routes between these airports
Route: +WNSKI1 KARLO DECAS SBONO1
File this flight plan on PilotEdge
Remarks:
Altitude:
(Current/Filed)
28,000ft
Speed:
(Current/Filed)
465kts
Departed: 03-Mar-19 05:11 PM
Arrived: 03-Mar-19 06:04 PM
Distance/Time
Traveled:
209nm/0:53
Distance/Time
To Go:
Arrived

Flight Plot

Page will automatically refresh every two minutes.

Flight plan parsing failed; only flown route is shown


Map Options




Map Legend


Flown Route
Filed Route
Departure Airport
Arrival Airport
Navaid (VOR, NDB)
Fix

Horizontal Profiles

Position Reports

Time Latitude Longitude Heading Altitude Ground
Speed
03-Mar-19 16:59 34.646716 -112.423773 42 5048ft 0kts
03-Mar-19 17:00 34.646716 -112.423773 42 5048ft 0kts
03-Mar-19 17:01 34.646716 -112.423773 42 5048ft 0kts
03-Mar-19 17:02 34.646716 -112.423773 42 5048ft 0kts
03-Mar-19 17:03 34.646716 -112.423773 42 5048ft 0kts
03-Mar-19 17:04 34.647168 -112.424311 234 5048ft 12kts
03-Mar-19 17:05 34.649513 -112.422912 39 5048ft 21kts
03-Mar-19 17:07 34.653294 -112.418897 40 5048ft 15kts
03-Mar-19 17:08 34.656638 -112.415273 37 5048ft 0kts
03-Mar-19 17:09 34.659822 -112.411461 41 5048ft 18kts
03-Mar-19 17:10 34.661515 -112.410544 310 5048ft 0kts
03-Mar-19 17:11 34.660362 -112.413138 221 5048ft 66kts
03-Mar-19 17:12 34.623963 -112.428734 127 7103ft 188kts
03-Mar-19 17:13 34.634614 -112.361653 117 9301ft 233kts
03-Mar-19 17:14 34.581727 -112.302974 147 12178ft 282kts
03-Mar-19 17:15 34.517841 -112.245741 193 12997ft 272kts
03-Mar-19 17:16 34.483592 -112.302922 267 14435ft 207kts
03-Mar-19 17:17 34.469679 -112.370865 249 16576ft 208kts
03-Mar-19 17:18 34.456442 -112.438021 265 19249ft 207kts
03-Mar-19 17:19 34.414788 -112.482769 198 21646ft 280kts
03-Mar-19 17:20 34.332310 -112.489351 224 24583ft 269kts
03-Mar-19 17:21 34.286334 -112.550152 237 28109ft 254kts
03-Mar-19 17:22 34.269032 -112.640361 264 28031ft 325kts
03-Mar-19 17:23 34.252785 -112.760155 262 28027ft 386kts
03-Mar-19 17:23 34.237551 -112.863156 262 28028ft 360kts
03-Mar-19 17:25 34.216797 -113.002947 262 28022ft 367kts
03-Mar-19 17:26 34.198527 -113.125090 262 27988ft 375kts
03-Mar-19 17:27 34.179723 -113.249520 261 27978ft 378kts
03-Mar-19 17:27 34.163790 -113.353868 261 27979ft 379kts
03-Mar-19 17:28 34.144930 -113.477288 261 26706ft 358kts
03-Mar-19 17:30 34.122303 -113.624200 260 24499ft 401kts
03-Mar-19 17:30 34.105539 -113.731855 260 23959ft 391kts
03-Mar-19 17:31 34.085112 -113.862398 260 23956ft 397kts
03-Mar-19 17:32 34.064859 -113.990842 260 23951ft 383kts
03-Mar-19 17:34 34.041585 -114.137486 260 23950ft 383kts
03-Mar-19 17:34 34.024758 -114.242757 260 23951ft 387kts
03-Mar-19 17:35 34.004185 -114.370636 260 23952ft 390kts
03-Mar-19 17:36 33.983353 -114.499225 260 23936ft 392kts
03-Mar-19 17:37 33.962301 -114.628288 260 23937ft 393kts
03-Mar-19 17:38 33.941032 -114.757739 260 23943ft 394kts
03-Mar-19 17:39 33.919530 -114.887745 260 23943ft 395kts
03-Mar-19 17:40 33.897953 -115.017332 260 23942ft 395kts
03-Mar-19 17:41 33.876105 -115.147615 260 22025ft 391kts
03-Mar-19 17:42 33.854592 -115.275007 259 20351ft 387kts
03-Mar-19 17:43 33.834211 -115.394817 260 18621ft 345kts
03-Mar-19 17:44 33.841230 -115.509643 290 17024ft 366kts
03-Mar-19 17:45 33.878601 -115.626654 288 15284ft 366kts
03-Mar-19 17:46 33.912119 -115.741367 279 13682ft 367kts
03-Mar-19 17:47 33.907175 -115.865220 267 12004ft 373kts
03-Mar-19 17:48 33.900480 -115.974515 266 10990ft 278kts
03-Mar-19 17:49 33.894922 -116.060143 266 10991ft 245kts
03-Mar-19 17:50 33.885140 -116.137448 261 10990ft 231kts
03-Mar-19 17:51 33.873396 -116.216404 261 10999ft 250kts
03-Mar-19 17:52 33.835950 -116.278245 190 9284ft 273kts
03-Mar-19 17:53 33.769500 -116.243172 152 7013ft 242kts
03-Mar-19 17:54 33.717029 -116.206213 153 6950ft 203kts
03-Mar-19 17:55 33.676301 -116.217145 271 6934ft 182kts
03-Mar-19 17:56 33.714906 -116.259948 319 4763ft 198kts
03-Mar-19 17:57 33.748668 -116.296444 280 3892ft 155kts
03-Mar-19 17:58 33.739580 -116.344187 236 3497ft 148kts
03-Mar-19 17:59 33.736797 -116.385269 292 2302ft 140kts
03-Mar-19 18:00 33.754385 -116.426127 301 2109ft 133kts
03-Mar-19 18:01 33.779951 -116.460723 313 1553ft 133kts
03-Mar-19 18:02 33.808025 -116.488088 321 849ft 125kts
03-Mar-19 18:03 33.828913 -116.507713 251 480ft 18kts

Navigation Log

Ident Type
Flight plan parsing failed, navigation log unavailable